Inwood, Indiana
Current Conditions -  °F | °C
As of 5:35 PM on Monday 22 Dec 2014 (Local Time) from KOXI Reporting Station
Overcast Overcast  
Wind Chill: -1°   Ceiling: 2700
Heat Index:   Visibility: 1.7mi
Dew Point:   Wind: 13mph
Humidity: 84%   Direction: 120°ESE
Pressure: 29.75"   Gusts: NA
Location:  41.3572°N, 86.3281°W
Report Text: KOXI 222235Z AUTO 12011KT 1 3/4SM SCT005 OVC027 03/01 A2975 RMK AO1 T00300006
Loading
Personal Weather Stations






























Interactive Weather Map New forecast layout! Learn more

10-Day Weather Forecast

Advertisements
Track Severe Weather on mobile